createdAt,value
2023-04-17T00:00:17.086Z,8.29
2023-04-17T00:00:50.339Z,8.28
2023-04-17T00:01:21.863Z,8.23
2023-04-17T00:01:55.680Z,8.26
2023-04-17T00:02:29.965Z,8.23
2023-04-17T00:03:01.950Z,8.18
2023-04-17T00:03:33.914Z,8.20
2023-04-17T00:04:10.678Z,8.21
2023-04-17T00:04:42.846Z,8.15
2023-04-17T00:05:17.001Z,8.16
2023-04-17T00:05:48.878Z,8.07
2023-04-17T00:06:20.426Z,8.15
2023-04-17T00:06:53.886Z,8.18
2023-04-17T00:07:28.395Z,8.14
2023-04-17T00:08:00.115Z,8.20
2023-04-17T00:08:32.764Z,8.23
2023-04-17T00:09:04.776Z,8.25
2023-04-17T00:09:36.333Z,8.24
2023-04-17T00:10:09.234Z,8.22
2023-04-17T00:10:40.826Z,8.18
2023-04-17T00:11:12.355Z,8.18
2023-04-17T00:11:43.869Z,7.99
2023-04-17T00:12:16.062Z,8.08
2023-04-17T00:12:47.707Z,8.17
2023-04-17T00:13:19.281Z,8.23
2023-04-17T00:13:50.802Z,8.17
2023-04-17T00:14:22.357Z,8.10
2023-04-17T00:14:53.890Z,8.14
2023-04-17T00:15:25.698Z,8.21
2023-04-17T00:15:57.296Z,8.18
2023-04-17T00:16:28.905Z,8.18
2023-04-17T00:17:00.589Z,8.16
2023-04-17T00:17:32.202Z,8.11
2023-04-17T00:18:03.784Z,8.13
2023-04-17T00:18:35.445Z,8.19
2023-04-17T00:19:06.976Z,8.12
2023-04-17T00:19:38.561Z,8.17
2023-04-17T00:20:10.870Z,8.19
2023-04-17T00:20:42.437Z,8.19
2023-04-17T00:21:14.239Z,8.21
2023-04-17T00:21:45.849Z,8.24
2023-04-17T00:22:17.445Z,8.23
2023-04-17T00:22:49.026Z,8.21
2023-04-17T00:23:20.901Z,8.18
2023-04-17T00:23:52.517Z,8.22
2023-04-17T00:24:24.026Z,8.21
2023-04-17T00:24:55.579Z,8.16
2023-04-17T00:25:27.253Z,8.12
2023-04-17T00:25:58.752Z,8.09
2023-04-17T00:26:32.349Z,8.05
2023-04-17T00:27:03.964Z,8.03
2023-04-17T00:27:35.608Z,8.12
2023-04-17T00:28:07.255Z,8.15
2023-04-17T00:28:38.963Z,8.06
2023-04-17T00:29:11.053Z,8.08
2023-04-17T00:29:42.884Z,8.09
2023-04-17T00:30:14.485Z,8.09
2023-04-17T00:30:46.733Z,8.15
2023-04-17T00:31:18.327Z,8.19
2023-04-17T00:31:50.037Z,8.18
2023-04-17T00:32:21.811Z,8.14
2023-04-17T00:32:53.968Z,8.02
2023-04-17T00:33:25.680Z,8.04
2023-04-17T00:33:58.914Z,8.17
2023-04-17T00:34:30.458Z,8.13
2023-04-17T00:35:02.215Z,8.18
2023-04-17T00:35:33.847Z,8.16
2023-04-17T00:36:05.981Z,8.16
2023-04-17T00:36:37.834Z,8.20
2023-04-17T00:37:09.398Z,8.21
2023-04-17T00:37:40.949Z,8.10
2023-04-17T00:38:13.391Z,8.04
2023-04-17T00:38:44.894Z,8.12
2023-04-17T00:39:16.499Z,8.18
2023-04-17T00:39:48.048Z,8.17
2023-04-17T00:40:19.624Z,8.10
2023-04-17T00:40:51.815Z,8.06
2023-04-17T00:41:23.352Z,8.07
2023-04-17T00:41:54.927Z,8.15
2023-04-17T00:42:27.052Z,8.13
2023-04-17T00:43:03.261Z,8.14
2023-04-17T00:43:35.015Z,8.16
2023-04-17T00:44:06.546Z,8.19
2023-04-17T00:44:38.287Z,8.13
2023-04-17T00:45:11.452Z,8.25
2023-04-17T00:45:43.180Z,8.21
2023-04-17T00:46:15.391Z,8.20
2023-04-17T00:46:46.954Z,8.24
2023-04-17T00:47:19.153Z,8.23
2023-04-17T00:47:51.715Z,8.22
2023-04-17T00:48:24.254Z,8.19
2023-04-17T00:48:55.831Z,8.15
2023-04-17T00:49:27.553Z,8.06
2023-04-17T00:49:59.325Z,8.05
2023-04-17T00:50:31.675Z,8.11
2023-04-17T00:51:03.884Z,8.11
2023-04-17T00:51:35.529Z,8.04
2023-04-17T00:52:07.411Z,7.98
2023-04-17T00:52:39.069Z,7.98
2023-04-17T00:53:11.494Z,7.99
2023-04-17T00:53:43.274Z,8.00
2023-04-17T00:54:15.090Z,7.98
2023-04-17T00:54:46.713Z,7.96
2023-04-17T00:55:18.461Z,7.97
2023-04-17T00:55:51.275Z,7.95
2023-04-17T00:56:22.823Z,7.99
2023-04-17T00:56:54.513Z,7.99
2023-04-17T00:57:26.740Z,7.92
2023-04-17T00:57:58.536Z,7.87
2023-04-17T00:58:31.074Z,7.92
2023-04-17T00:59:04.156Z,7.86
2023-04-17T00:59:36.505Z,7.84
2023-04-17T01:00:09.573Z,7.87
2023-04-17T01:00:41.280Z,7.88
2023-04-17T01:01:13.601Z,7.88
2023-04-17T01:01:45.874Z,7.85
2023-04-17T01:02:18.570Z,7.86
2023-04-17T01:02:50.524Z,7.88
2023-04-17T01:03:23.146Z,7.90
2023-04-17T01:03:55.239Z,7.88
2023-04-17T01:04:27.666Z,7.93
2023-04-17T01:04:59.230Z,7.91
2023-04-17T01:05:31.155Z,7.92
2023-04-17T01:06:03.756Z,7.94
2023-04-17T01:06:36.365Z,7.92
2023-04-17T01:07:08.148Z,7.96
2023-04-17T01:07:41.276Z,7.97
2023-04-17T01:08:12.951Z,7.91
2023-04-17T01:08:44.569Z,7.88
2023-04-17T01:09:16.940Z,7.88
2023-04-17T01:09:48.519Z,7.88
2023-04-17T01:10:20.298Z,7.88
2023-04-17T01:10:51.847Z,7.92
2023-04-17T01:11:23.565Z,7.92
2023-04-17T01:11:55.131Z,7.95
2023-04-17T01:12:26.886Z,7.92
2023-04-17T01:13:06.205Z,7.85
2023-04-17T01:13:48.689Z,7.86
2023-04-17T01:14:20.871Z,7.85
2023-04-17T01:14:53.798Z,7.92
2023-04-17T01:15:25.445Z,7.87
2023-04-17T01:15:56.962Z,7.87
2023-04-17T01:16:30.958Z,7.83
2023-04-17T01:17:02.644Z,7.84
2023-04-17T01:17:34.287Z,7.80
2023-04-17T01:18:06.732Z,7.85
2023-04-17T01:18:38.499Z,7.84
2023-04-17T01:19:11.338Z,7.82
2023-04-17T01:19:43.120Z,7.88
2023-04-17T01:20:14.706Z,7.91
2023-04-17T01:20:46.689Z,7.94
2023-04-17T01:21:19.624Z,7.96
2023-04-17T01:21:51.237Z,7.89
2023-04-17T01:22:22.825Z,7.88
2023-04-17T01:22:59.860Z,7.88
2023-04-17T01:23:43.304Z,7.79
2023-04-17T01:24:14.815Z,7.74
2023-04-17T01:24:47.377Z,7.87
2023-04-17T01:25:19.452Z,7.87
2023-04-17T01:25:51.566Z,7.89
2023-04-17T01:26:24.146Z,7.94
2023-04-17T01:26:56.489Z,7.97
2023-04-17T01:27:28.226Z,8.00
2023-04-17T01:28:00.314Z,7.99
2023-04-17T01:28:33.883Z,7.91
2023-04-17T01:29:05.492Z,7.87
2023-04-17T01:29:37.112Z,7.90
2023-04-17T01:30:09.122Z,7.95
2023-04-17T01:30:47.442Z,7.98
2023-04-17T01:31:19.749Z,8.00
2023-04-17T01:31:51.842Z,7.99
2023-04-17T01:32:23.369Z,7.90
2023-04-17T01:32:56.234Z,7.84
2023-04-17T01:33:27.806Z,7.98
2023-04-17T01:34:00.441Z,7.99
2023-04-17T01:34:32.591Z,8.00
2023-04-17T01:35:04.455Z,8.02
2023-04-17T01:35:36.059Z,7.96
2023-04-17T01:36:07.780Z,7.93
2023-04-17T01:36:39.304Z,7.89
2023-04-17T01:37:11.069Z,7.83
2023-04-17T01:37:42.783Z,7.81
2023-04-17T01:38:14.467Z,7.79
2023-04-17T01:38:46.462Z,7.89
2023-04-17T01:39:18.141Z,7.85
2023-04-17T01:39:49.745Z,7.84
2023-04-17T01:40:21.349Z,7.98
2023-04-17T01:40:53.236Z,8.00
2023-04-17T01:41:24.991Z,7.95
2023-04-17T01:41:56.653Z,7.88
2023-04-17T01:42:28.310Z,7.98
2023-04-17T01:42:59.815Z,7.96
2023-04-17T01:43:31.331Z,7.97
2023-04-17T01:44:02.881Z,7.91
2023-04-17T01:44:34.413Z,8.02
2023-04-17T01:45:06.501Z,7.98
2023-04-17T01:45:38.912Z,7.96
2023-04-17T01:46:10.693Z,7.87
2023-04-17T01:46:42.392Z,7.96
2023-04-17T01:47:14.074Z,7.97
2023-04-17T01:47:45.809Z,8.02
2023-04-17T01:48:17.490Z,8.00
2023-04-17T01:48:49.053Z,7.98
2023-04-17T01:49:20.614Z,7.93
2023-04-17T01:49:52.184Z,8.00
2023-04-17T01:50:23.702Z,7.95
2023-04-17T01:50:55.325Z,7.90
2023-04-17T01:51:27.942Z,7.95
2023-04-17T01:51:59.661Z,7.87
2023-04-17T01:52:31.275Z,7.87
2023-04-17T01:53:02.781Z,7.88
2023-04-17T01:53:34.576Z,7.87
2023-04-17T01:54:06.126Z,7.83
2023-04-17T01:54:37.834Z,7.77
2023-04-17T01:55:09.814Z,7.81
2023-04-17T01:55:41.526Z,7.85
2023-04-17T01:56:13.886Z,7.78
2023-04-17T01:56:45.444Z,7.79
2023-04-17T01:57:17.223Z,7.81
2023-04-17T01:57:49.824Z,7.73
2023-04-17T01:58:21.519Z,7.67
2023-04-17T01:58:53.493Z,7.75
2023-04-17T01:59:25.488Z,7.84
2023-04-17T01:59:57.096Z,7.87
2023-04-17T02:00:29.465Z,7.89
2023-04-17T02:01:01.316Z,7.80
2023-04-17T02:01:32.953Z,7.81
2023-04-17T02:02:04.768Z,7.67
2023-04-17T02:02:36.474Z,7.72
2023-04-17T02:03:08.208Z,7.80
2023-04-17T02:03:39.948Z,7.79
2023-04-17T02:04:11.684Z,7.73
2023-04-17T02:04:43.341Z,7.78
2023-04-17T02:05:14.934Z,7.82
2023-04-17T02:05:48.927Z,7.79
2023-04-17T02:06:20.677Z,7.80
2023-04-17T02:06:52.373Z,7.72
2023-04-17T02:07:23.888Z,7.66
2023-04-17T02:07:55.394Z,7.72
2023-04-17T02:08:27.253Z,7.88
2023-04-17T02:08:59.521Z,7.89
2023-04-17T02:09:31.037Z,7.96
2023-04-17T02:10:03.024Z,7.93
2023-04-17T02:10:34.733Z,7.94
2023-04-17T02:11:06.220Z,7.90
2023-04-17T02:11:37.930Z,7.91
2023-04-17T02:12:09.450Z,7.87
2023-04-17T02:12:40.971Z,7.88
2023-04-17T02:13:12.501Z,7.87
2023-04-17T02:13:46.188Z,7.83
2023-04-17T02:14:18.055Z,7.84
2023-04-17T02:14:49.580Z,7.91
2023-04-17T02:15:22.303Z,7.84
2023-04-17T02:15:53.932Z,7.80
2023-04-17T02:16:25.664Z,7.80
2023-04-17T02:16:57.633Z,7.88
2023-04-17T02:17:29.349Z,7.80
2023-04-17T02:18:01.944Z,7.85
2023-04-17T02:18:33.519Z,7.72
2023-04-17T02:19:05.273Z,7.67
2023-04-17T02:19:36.813Z,7.79
2023-04-17T02:20:08.979Z,7.75
2023-04-17T02:20:40.592Z,7.68
2023-04-17T02:21:12.084Z,7.75
2023-04-17T02:21:43.588Z,7.73
2023-04-17T02:22:15.826Z,7.65
2023-04-17T02:22:47.330Z,7.74
2023-04-17T02:23:18.852Z,7.86
2023-04-17T02:23:50.669Z,7.86
2023-04-17T02:24:22.195Z,7.84
2023-04-17T02:24:53.765Z,7.81
2023-04-17T02:25:25.381Z,7.81
2023-04-17T02:25:57.984Z,7.71
2023-04-17T02:26:29.561Z,7.77
2023-04-17T02:27:01.987Z,7.89
2023-04-17T02:27:33.807Z,7.97
2023-04-17T02:28:06.357Z,7.90
2023-04-17T02:28:39.427Z,7.95
2023-04-17T02:29:11.200Z,7.89
2023-04-17T02:29:42.854Z,7.86
2023-04-17T02:30:14.521Z,7.74
2023-04-17T02:30:46.032Z,7.82
2023-04-17T02:31:17.602Z,7.90
2023-04-17T02:31:50.736Z,7.90
2023-04-17T02:32:22.454Z,7.88
2023-04-17T02:32:54.960Z,7.96
2023-04-17T02:33:27.103Z,7.96
2023-04-17T02:33:58.623Z,7.90
2023-04-17T02:34:31.013Z,7.93
2023-04-17T02:35:02.673Z,7.99
2023-04-17T02:35:34.618Z,7.93
2023-04-17T02:36:06.428Z,7.99
2023-04-17T02:36:44.018Z,7.99
2023-04-17T02:37:15.832Z,8.02
2023-04-17T02:37:47.615Z,7.94
2023-04-17T02:38:19.293Z,7.97
2023-04-17T02:38:50.861Z,7.96
2023-04-17T02:39:22.384Z,7.96
2023-04-17T02:39:54.322Z,7.94
2023-04-17T02:40:26.103Z,7.98
2023-04-17T02:41:05.402Z,7.91
2023-04-17T02:41:38.034Z,7.89
2023-04-17T02:42:12.931Z,7.83
2023-04-17T02:42:45.966Z,7.84
2023-04-17T02:43:18.198Z,7.83
2023-04-17T02:43:49.930Z,7.93
2023-04-17T02:44:22.668Z,7.90
2023-04-17T02:44:54.206Z,7.84
2023-04-17T02:45:26.753Z,7.71
2023-04-17T02:45:58.735Z,7.71
2023-04-17T02:46:31.860Z,7.68
2023-04-17T02:47:03.518Z,7.72
2023-04-17T02:47:37.853Z,7.85
2023-04-17T02:48:09.492Z,7.82
2023-04-17T02:48:41.151Z,7.72
2023-04-17T02:49:13.327Z,7.72
2023-04-17T02:49:45.037Z,7.84
2023-04-17T02:50:16.579Z,7.77
2023-04-17T02:51:04.696Z,7.75
2023-04-17T02:51:36.524Z,7.83
2023-04-17T02:52:08.248Z,7.88
2023-04-17T02:52:40.329Z,7.91
2023-04-17T02:53:11.863Z,7.92
2023-04-17T02:53:43.381Z,7.93
2023-04-17T02:54:14.930Z,7.90
2023-04-17T02:54:47.138Z,7.91
2023-04-17T02:55:21.131Z,7.92
2023-04-17T02:55:52.808Z,7.89
2023-04-17T02:56:27.255Z,7.87
2023-04-17T02:56:58.777Z,7.87
2023-04-17T02:57:30.493Z,7.87
2023-04-17T02:58:02.028Z,7.88
2023-04-17T02:58:33.571Z,7.90
2023-04-17T02:59:05.159Z,7.89
2023-04-17T02:59:37.359Z,7.86
2023-04-17T03:00:12.748Z,7.85
2023-04-17T03:00:44.367Z,7.87
2023-04-17T03:01:20.225Z,7.88
2023-04-17T03:01:51.951Z,7.85
2023-04-17T03:02:24.545Z,7.83
2023-04-17T03:02:56.483Z,7.88
2023-04-17T03:03:31.212Z,7.83
2023-04-17T03:04:03.427Z,7.80
2023-04-17T03:04:35.710Z,7.82
2023-04-17T03:05:07.555Z,7.85
2023-04-17T03:05:39.797Z,7.85
2023-04-17T03:06:11.378Z,7.87
2023-04-17T03:06:43.116Z,7.92
2023-04-17T03:07:18.575Z,7.86
2023-04-17T03:07:52.740Z,7.91
2023-04-17T03:08:24.825Z,7.95
2023-04-17T03:08:56.959Z,7.95
2023-04-17T03:09:28.591Z,7.91
2023-04-17T03:10:00.131Z,7.94
2023-04-17T03:10:31.707Z,7.93
2023-04-17T03:11:03.465Z,7.87
2023-04-17T03:11:35.201Z,7.87
2023-04-17T03:12:06.820Z,7.93
2023-04-17T03:12:38.375Z,7.94
2023-04-17T03:13:09.896Z,7.96
2023-04-17T03:13:43.462Z,7.92
2023-04-17T03:14:15.581Z,7.87
2023-04-17T03:14:47.118Z,7.94
2023-04-17T03:15:18.767Z,7.96
2023-04-17T03:15:50.458Z,7.94
2023-04-17T03:16:22.273Z,7.92
2023-04-17T03:16:53.972Z,7.90
2023-04-17T03:17:25.793Z,7.86
2023-04-17T03:17:57.682Z,7.86
2023-04-17T03:18:29.394Z,7.89
2023-04-17T03:19:02.998Z,7.90
2023-04-17T03:19:34.655Z,7.90
2023-04-17T03:20:07.795Z,7.90
2023-04-17T03:20:39.491Z,7.86
2023-04-17T03:21:11.008Z,7.89
2023-04-17T03:21:42.596Z,7.89
2023-04-17T03:22:15.293Z,7.88
2023-04-17T03:22:46.919Z,7.88
2023-04-17T03:23:19.236Z,7.82
2023-04-17T03:23:50.877Z,7.82
2023-04-17T03:24:24.590Z,7.72
2023-04-17T03:24:56.193Z,7.77
2023-04-17T03:25:30.359Z,7.73
2023-04-17T03:26:02.046Z,7.77
2023-04-17T03:26:36.678Z,7.80
2023-04-17T03:27:12.441Z,7.81
2023-04-17T03:27:46.738Z,7.82
2023-04-17T03:28:19.156Z,7.84
2023-04-17T03:28:50.773Z,7.84
2023-04-17T03:29:22.402Z,7.86
2023-04-17T03:29:54.915Z,7.87
2023-04-17T03:30:26.958Z,7.83
2023-04-17T03:31:01.452Z,7.85
2023-04-17T03:31:34.333Z,7.85
2023-04-17T03:32:06.280Z,7.86
2023-04-17T03:32:38.209Z,7.88
2023-04-17T03:33:09.836Z,7.83
2023-04-17T03:33:41.861Z,7.81
2023-04-17T03:34:13.560Z,7.77
2023-04-17T03:34:45.994Z,7.72
2023-04-17T03:35:17.525Z,7.68
2023-04-17T03:35:49.095Z,7.68
2023-04-17T03:36:20.654Z,7.71
2023-04-17T03:36:52.340Z,7.69
2023-04-17T03:37:23.977Z,7.64
2023-04-17T03:37:55.882Z,7.62
2023-04-17T03:38:27.993Z,7.63
2023-04-17T03:38:59.826Z,7.60
2023-04-17T03:39:31.420Z,7.57
2023-04-17T03:40:05.238Z,7.56
2023-04-17T03:40:37.057Z,7.63
2023-04-17T03:41:10.184Z,7.63
2023-04-17T03:41:41.824Z,7.64
2023-04-17T03:42:14.898Z,7.64
2023-04-17T03:42:46.620Z,7.66
2023-04-17T03:43:18.403Z,7.69
2023-04-17T03:43:50.673Z,7.67
2023-04-17T03:44:22.247Z,7.71
2023-04-17T03:44:56.105Z,7.72
2023-04-17T03:45:29.219Z,7.71
2023-04-17T03:46:01.640Z,7.78
2023-04-17T03:46:34.324Z,7.78
2023-04-17T03:47:06.003Z,7.79
2023-04-17T03:47:37.834Z,7.81
2023-04-17T03:48:09.600Z,7.78
2023-04-17T03:48:42.584Z,7.75
2023-04-17T03:49:14.392Z,7.73
2023-04-17T03:49:46.157Z,7.74
2023-04-17T03:50:18.050Z,7.72
2023-04-17T03:50:56.775Z,7.78
2023-04-17T03:51:28.668Z,7.75
2023-04-17T03:52:05.575Z,7.78
2023-04-17T03:52:37.514Z,7.80
2023-04-17T03:53:09.875Z,7.75
2023-04-17T03:53:42.074Z,7.73
2023-04-17T03:54:16.532Z,7.70
2023-04-17T03:54:50.245Z,7.68
2023-04-17T03:55:22.262Z,7.72
2023-04-17T03:55:54.236Z,7.72
2023-04-17T03:56:30.955Z,7.76
2023-04-17T03:57:03.521Z,7.74
2023-04-17T03:57:36.258Z,7.75
2023-04-17T03:58:08.455Z,7.73
2023-04-17T03:58:40.038Z,7.73
2023-04-17T03:59:14.231Z,7.75
2023-04-17T03:59:47.998Z,7.75
2023-04-17T04:00:21.831Z,7.76
2023-04-17T04:00:58.957Z,7.80
2023-04-17T04:01:34.310Z,7.79
2023-04-17T04:02:23.050Z,7.86
2023-04-17T04:02:55.689Z,7.83
2023-04-17T04:03:32.003Z,7.84
2023-04-17T04:04:04.755Z,7.86
2023-04-17T04:04:36.611Z,7.84
2023-04-17T04:05:16.048Z,7.80
2023-04-17T04:05:48.090Z,7.79
2023-04-17T04:06:20.361Z,7.79
2023-04-17T04:06:54.478Z,7.80
2023-04-17T04:07:26.215Z,7.76
2023-04-17T04:07:58.133Z,7.81
2023-04-17T04:08:59.023Z,7.84
2023-04-17T04:09:30.793Z,7.85
2023-04-17T04:10:03.234Z,7.79
2023-04-17T04:10:35.417Z,7.83
2023-04-17T04:11:07.300Z,7.86
2023-04-17T04:11:41.859Z,7.83
2023-04-17T04:12:13.546Z,7.87
2023-04-17T04:12:48.389Z,7.88
2023-04-17T04:13:20.728Z,7.83
2023-04-17T04:13:57.761Z,7.85
2023-04-17T04:14:29.697Z,7.85
2023-04-17T04:15:01.373Z,7.87
2023-04-17T04:15:34.445Z,7.85
2023-04-17T04:16:09.590Z,7.82
2023-04-17T04:16:43.549Z,7.84
2023-04-17T04:17:17.168Z,7.81
2023-04-17T04:17:48.852Z,7.79
2023-04-17T04:18:20.703Z,7.83
2023-04-17T04:18:52.970Z,7.82
2023-04-17T04:19:25.058Z,7.83
2023-04-17T04:19:57.189Z,7.87
2023-04-17T04:20:29.563Z,7.86
2023-04-17T04:21:12.781Z,7.86
2023-04-17T04:21:46.495Z,7.89
2023-04-17T04:22:21.258Z,7.90
2023-04-17T04:22:59.333Z,7.85
2023-04-17T04:23:31.525Z,7.85
2023-04-17T04:24:03.246Z,7.86
2023-04-17T04:24:35.309Z,7.85
2023-04-17T04:25:08.486Z,7.88
2023-04-17T04:25:52.013Z,7.87
2023-04-17T04:26:33.355Z,7.90
2023-04-17T04:27:05.304Z,7.92
2023-04-17T04:27:39.670Z,7.90
2023-04-17T04:28:13.283Z,7.89
2023-04-17T04:28:44.867Z,7.90
2023-04-17T04:29:31.480Z,7.87
2023-04-17T04:30:10.446Z,7.88
2023-04-17T04:30:50.552Z,7.91
2023-04-17T04:31:25.741Z,7.92
2023-04-17T04:31:57.796Z,7.92
2023-04-17T04:32:34.845Z,7.92
2023-04-17T04:33:08.364Z,7.91
2023-04-17T04:33:40.275Z,7.91
2023-04-17T04:34:13.423Z,7.90
2023-04-17T04:34:45.032Z,7.92
2023-04-17T04:35:16.763Z,7.93
2023-04-17T04:35:48.833Z,7.98
2023-04-17T04:36:20.516Z,7.93
2023-04-17T04:36:57.383Z,7.95
2023-04-17T04:37:46.478Z,7.96
2023-04-17T04:38:18.846Z,8.01
2023-04-17T04:38:53.152Z,8.02
2023-04-17T04:39:31.431Z,7.98
2023-04-17T04:40:09.164Z,7.99
2023-04-17T04:40:44.023Z,7.98
2023-04-17T04:41:17.507Z,7.99
2023-04-17T04:41:52.149Z,7.95
2023-04-17T04:42:27.234Z,8.00
2023-04-17T04:43:17.102Z,8.01
2023-04-17T04:43:50.330Z,8.05
2023-04-17T04:44:22.097Z,8.03
2023-04-17T04:44:56.385Z,8.01
2023-04-17T04:45:31.171Z,7.98
2023-04-17T04:46:03.790Z,7.97
2023-04-17T04:46:38.690Z,8.01
2023-04-17T04:47:10.424Z,8.05
2023-04-17T04:47:42.730Z,8.04
2023-04-17T04:48:14.324Z,8.03
2023-04-17T04:48:45.926Z,8.07
2023-04-17T04:49:17.491Z,8.07
2023-04-17T04:49:49.563Z,8.04
2023-04-17T04:50:24.575Z,8.02
2023-04-17T04:50:56.401Z,8.05
2023-04-17T04:51:28.085Z,8.02
2023-04-17T04:51:59.773Z,7.94
2023-04-17T04:52:36.719Z,7.98
2023-04-17T04:53:17.337Z,7.98
2023-04-17T04:53:57.909Z,7.98
2023-04-17T04:54:29.525Z,7.99
2023-04-17T04:55:04.637Z,8.00
2023-04-17T04:55:37.879Z,7.99
2023-04-17T04:56:10.360Z,7.91
2023-04-17T04:56:44.908Z,7.96
2023-04-17T04:57:17.914Z,8.00
2023-04-17T04:57:54.143Z,8.00
2023-04-17T04:58:26.422Z,7.97
2023-04-17T04:59:00.740Z,7.93
2023-04-17T04:59:36.741Z,7.95
2023-04-17T05:00:28.451Z,7.85
2023-04-17T05:01:02.897Z,7.84
2023-04-17T05:01:40.354Z,7.82
2023-04-17T05:02:13.636Z,7.81
2023-04-17T05:02:45.457Z,7.81
2023-04-17T05:03:17.404Z,7.80
2023-04-17T05:03:50.042Z,7.82
2023-04-17T05:04:27.623Z,7.81
2023-04-17T05:05:04.576Z,7.81
2023-04-17T05:05:38.533Z,7.82
2023-04-17T05:06:11.268Z,7.83
2023-04-17T05:06:47.808Z,7.78
2023-04-17T05:07:19.344Z,7.82
2023-04-17T05:07:53.490Z,7.78
2023-04-17T05:08:25.031Z,7.75
2023-04-17T05:09:05.692Z,7.77
2023-04-17T05:09:37.306Z,7.78
2023-04-17T05:10:10.095Z,7.82
2023-04-17T05:10:46.076Z,7.84
2023-04-17T05:11:18.329Z,7.88
2023-04-17T05:11:52.774Z,7.91
2023-04-17T05:12:24.523Z,7.93
2023-04-17T05:12:56.160Z,7.91
2023-04-17T05:13:30.069Z,7.96
2023-04-17T05:14:02.242Z,7.96
2023-04-17T05:14:39.370Z,7.93
2023-04-17T05:15:13.003Z,7.95
2023-04-17T05:15:44.832Z,7.97
2023-04-17T05:16:16.686Z,7.94
2023-04-17T05:16:48.305Z,7.90
2023-04-17T05:17:20.389Z,7.91
2023-04-17T05:17:52.042Z,7.94
2023-04-17T05:18:23.845Z,7.94
2023-04-17T05:18:55.617Z,7.89
2023-04-17T05:19:46.749Z,7.99
2023-04-17T05:20:19.071Z,7.97
2023-04-17T05:20:55.379Z,7.91
2023-04-17T05:21:31.122Z,7.89
2023-04-17T05:22:02.944Z,7.91
2023-04-17T05:22:38.635Z,7.94
2023-04-17T05:23:14.569Z,7.90
2023-04-17T05:23:46.187Z,7.92
2023-04-17T05:24:17.745Z,7.93
2023-04-17T05:24:49.355Z,7.97
2023-04-17T05:25:22.597Z,7.93
2023-04-17T05:25:54.333Z,7.96
2023-04-17T05:26:26.364Z,8.00
2023-04-17T05:26:58.193Z,8.03
2023-04-17T05:27:29.743Z,8.03
2023-04-17T05:28:01.758Z,8.04
2023-04-17T05:28:33.295Z,8.12
2023-04-17T05:29:04.935Z,8.09
2023-04-17T05:29:38.461Z,8.14
2023-04-17T05:30:11.028Z,8.16
2023-04-17T05:30:42.671Z,8.16
2023-04-17T05:31:23.947Z,8.10
2023-04-17T05:31:56.335Z,8.11
2023-04-17T05:32:46.309Z,8.17
2023-04-17T05:33:32.158Z,8.07
2023-04-17T05:34:06.136Z,8.15
2023-04-17T05:34:37.875Z,8.15
2023-04-17T05:35:09.747Z,8.18
2023-04-17T05:35:43.340Z,8.20
2023-04-17T05:36:14.962Z,8.22
2023-04-17T05:36:46.674Z,8.22
2023-04-17T05:37:19.032Z,8.22
2023-04-17T05:37:50.843Z,8.26
2023-04-17T05:38:22.388Z,8.25
2023-04-17T05:38:53.910Z,8.21
2023-04-17T05:39:25.593Z,8.19
2023-04-17T05:39:57.134Z,8.23
2023-04-17T05:40:28.700Z,8.26
2023-04-17T05:41:01.773Z,8.28
2023-04-17T05:41:33.579Z,8.32
2023-04-17T05:42:05.298Z,8.32
2023-04-17T05:42:37.105Z,8.27
2023-04-17T05:43:10.238Z,8.26
2023-04-17T05:43:43.202Z,8.24
2023-04-17T05:44:14.708Z,8.21
2023-04-17T05:44:47.372Z,8.23
2023-04-17T05:45:19.278Z,8.24
2023-04-17T05:45:51.080Z,8.14
2023-04-17T05:46:22.840Z,8.10
2023-04-17T05:46:57.277Z,8.11
2023-04-17T05:47:29.197Z,8.12
2023-04-17T05:48:01.074Z,8.09
2023-04-17T05:48:33.136Z,8.09
2023-04-17T05:49:05.003Z,8.11
2023-04-17T05:49:36.672Z,8.11
2023-04-17T05:50:09.253Z,8.06
2023-04-17T05:50:41.129Z,8.04
2023-04-17T05:51:13.051Z,8.07
2023-04-17T05:51:44.605Z,8.06
2023-04-17T05:52:16.375Z,7.97
2023-04-17T05:52:49.067Z,7.97
2023-04-17T05:53:21.619Z,8.00
2023-04-17T05:53:56.403Z,8.00
2023-04-17T05:54:30.186Z,7.94
2023-04-17T05:55:03.808Z,7.97
2023-04-17T05:55:37.481Z,7.98
2023-04-17T05:56:12.725Z,7.97
2023-04-17T05:56:44.266Z,8.02
2023-04-17T05:57:16.521Z,8.00
2023-04-17T05:57:48.226Z,7.98
2023-04-17T05:58:23.668Z,7.94
2023-04-17T05:58:58.854Z,7.94
2023-04-17T05:59:30.562Z,7.93
2023-04-17T06:00:09.043Z,7.89
2023-04-17T06:00:46.278Z,7.82
2023-04-17T06:01:22.516Z,7.79
2023-04-17T06:01:59.524Z,7.78
2023-04-17T06:02:31.460Z,7.81
2023-04-17T06:03:03.571Z,7.80
2023-04-17T06:03:40.123Z,7.74
2023-04-17T06:04:19.983Z,7.81
2023-04-17T06:04:53.423Z,7.81
2023-04-17T06:05:25.218Z,7.84
2023-04-17T06:05:57.306Z,7.88
2023-04-17T06:06:29.775Z,7.86
2023-04-17T06:07:03.171Z,7.88
2023-04-17T06:07:35.177Z,7.90
2023-04-17T06:08:07.085Z,7.93
2023-04-17T06:08:38.667Z,7.94
2023-04-17T06:09:11.366Z,7.97
2023-04-17T06:09:43.335Z,7.96
2023-04-17T06:10:15.813Z,7.93
2023-04-17T06:10:50.148Z,7.91
2023-04-17T06:11:21.759Z,7.96
2023-04-17T06:11:53.698Z,7.94
2023-04-17T06:12:25.488Z,7.90
2023-04-17T06:12:57.689Z,7.91
2023-04-17T06:13:29.535Z,7.89
2023-04-17T06:14:01.980Z,7.87
2023-04-17T06:14:33.558Z,7.86
2023-04-17T06:15:11.357Z,7.86
2023-04-17T06:15:43.020Z,7.89
2023-04-17T06:16:14.609Z,7.89
2023-04-17T06:16:46.886Z,7.86
2023-04-17T06:17:21.305Z,7.87
2023-04-17T06:17:53.094Z,7.90
2023-04-17T06:18:24.761Z,7.89
2023-04-17T06:18:56.323Z,7.96
2023-04-17T06:19:27.914Z,8.01
2023-04-17T06:19:59.663Z,8.02
2023-04-17T06:20:31.468Z,7.97
2023-04-17T06:21:03.005Z,8.02
2023-04-17T06:21:34.610Z,7.98
2023-04-17T06:22:06.387Z,7.94
2023-04-17T06:22:39.311Z,7.91
2023-04-17T06:23:10.885Z,7.92
2023-04-17T06:23:42.399Z,7.93
2023-04-17T06:24:13.920Z,7.93
2023-04-17T06:24:50.393Z,7.98
2023-04-17T06:25:22.169Z,8.05
2023-04-17T06:25:53.931Z,8.07
2023-04-17T06:26:25.587Z,8.01
2023-04-17T06:26:57.966Z,7.99
2023-04-17T06:27:29.626Z,8.02
2023-04-17T06:28:01.545Z,8.02
2023-04-17T06:28:33.642Z,8.06
2023-04-17T06:29:05.528Z,7.97
2023-04-17T06:29:38.834Z,7.92
2023-04-17T06:30:10.731Z,7.92
2023-04-17T06:30:53.420Z,7.87
2023-04-17T06:31:25.453Z,7.89
2023-04-17T06:31:57.029Z,7.89
2023-04-17T06:32:28.794Z,7.83
2023-04-17T06:33:00.493Z,7.80
2023-04-17T06:33:32.535Z,7.81
2023-04-17T06:34:04.121Z,7.79
2023-04-17T06:34:56.096Z,7.81
2023-04-17T06:35:42.075Z,7.79
2023-04-17T06:36:39.601Z,7.82
2023-04-17T06:37:11.740Z,7.86
2023-04-17T06:37:43.526Z,7.88
2023-04-17T06:38:15.231Z,7.91
2023-04-17T06:38:48.165Z,7.86
2023-04-17T06:39:23.130Z,7.85
2023-04-17T06:39:54.730Z,7.84
2023-04-17T06:40:26.448Z,7.89
2023-04-17T06:40:58.150Z,7.86
2023-04-17T06:41:29.718Z,7.92
2023-04-17T06:42:02.420Z,7.93
2023-04-17T06:42:35.365Z,7.97
2023-04-17T06:43:07.749Z,8.01
2023-04-17T06:43:43.199Z,8.02
2023-04-17T06:44:20.502Z,7.99
2023-04-17T06:44:52.542Z,8.06
2023-04-17T06:45:24.254Z,8.05
2023-04-17T06:45:55.879Z,8.04
2023-04-17T06:46:27.818Z,8.04
2023-04-17T06:47:03.476Z,8.00
2023-04-17T06:47:35.132Z,8.07
2023-04-17T06:48:07.328Z,8.09
2023-04-17T06:48:38.831Z,8.11
2023-04-17T06:49:10.611Z,8.07
2023-04-17T06:49:42.440Z,8.13
2023-04-17T06:50:14.106Z,8.15
2023-04-17T06:50:45.666Z,8.04
2023-04-17T06:51:21.694Z,8.07
2023-04-17T06:51:53.261Z,8.09
2023-04-17T06:52:24.903Z,8.10
2023-04-17T06:52:56.533Z,8.16
2023-04-17T06:53:28.034Z,8.22
2023-04-17T06:53:59.617Z,8.25
2023-04-17T06:54:31.181Z,8.29
2023-04-17T06:55:02.680Z,8.27
2023-04-17T06:55:34.204Z,8.27
2023-04-17T06:56:05.892Z,8.27
2023-04-17T06:56:37.591Z,8.24
2023-04-17T06:57:10.739Z,8.21
2023-04-17T06:57:42.307Z,8.18
2023-04-17T06:58:14.143Z,8.15
2023-04-17T06:58:45.775Z,8.12
2023-04-17T06:59:17.883Z,8.16
2023-04-17T06:59:49.486Z,8.20
2023-04-17T07:00:21.752Z,8.18
2023-04-17T07:00:53.488Z,8.16
2023-04-17T07:01:25.142Z,8.16
2023-04-17T07:01:56.737Z,8.15
2023-04-17T07:02:28.429Z,8.16
2023-04-17T07:03:00.623Z,8.23
2023-04-17T07:03:32.386Z,8.27
2023-04-17T07:04:04.150Z,8.29
2023-04-17T07:04:35.915Z,8.31
2023-04-17T07:05:08.034Z,8.32
2023-04-17T07:05:39.582Z,8.35
2023-04-17T07:06:11.195Z,8.41
2023-04-17T07:06:42.705Z,8.41
2023-04-17T07:07:14.227Z,8.46
2023-04-17T07:07:45.936Z,8.43
2023-04-17T07:08:19.396Z,8.48
2023-04-17T07:08:51.301Z,8.43
2023-04-17T07:09:24.531Z,8.42
2023-04-17T07:09:56.428Z,8.44
2023-04-17T07:10:27.941Z,8.43
2023-04-17T07:10:59.639Z,8.35
2023-04-17T07:11:31.646Z,8.38
2023-04-17T07:12:03.865Z,8.40
2023-04-17T07:12:35.430Z,8.41
2023-04-17T07:13:07.038Z,8.32
2023-04-17T07:13:38.749Z,8.31
2023-04-17T07:14:12.718Z,8.32
2023-04-17T07:14:44.442Z,8.30
2023-04-17T07:15:16.547Z,8.32
2023-04-17T07:15:53.325Z,8.34
2023-04-17T07:16:25.141Z,8.32
2023-04-17T07:16:56.678Z,8.36
2023-04-17T07:17:28.246Z,8.43
2023-04-17T07:17:59.892Z,8.52